createdAt,value
2023-04-26T00:02:05.369Z,32.88
2023-04-26T00:04:34.372Z,32.90
2023-04-26T00:07:02.160Z,33.40
2023-04-26T00:09:29.937Z,33.68
2023-04-26T00:11:57.558Z,33.66
2023-04-26T00:14:26.165Z,34.11
2023-04-26T00:16:53.687Z,33.88
2023-04-26T00:19:21.692Z,33.73
2023-04-26T00:21:49.183Z,33.94
2023-04-26T00:24:16.709Z,33.84
2023-04-26T00:26:44.143Z,33.83
2023-04-26T00:29:11.730Z,33.81
2023-04-26T00:31:40.249Z,33.98
2023-04-26T00:34:07.890Z,34.34
2023-04-26T00:36:35.333Z,33.97
2023-04-26T00:39:03.120Z,34.73
2023-04-26T00:41:30.620Z,34.68
2023-04-26T00:43:58.099Z,35.05
2023-04-26T00:46:26.770Z,34.88
2023-04-26T00:48:54.561Z,35.19
2023-04-26T00:51:22.363Z,35.47
2023-04-26T00:53:50.134Z,35.31
2023-04-26T00:56:17.796Z,35.36
2023-04-26T00:58:46.606Z,35.60
2023-04-26T01:01:14.293Z,35.47
2023-04-26T01:03:43.350Z,35.44
2023-04-26T01:06:12.839Z,35.43
2023-04-26T01:08:40.780Z,35.13
2023-04-26T01:11:08.779Z,34.91
2023-04-26T01:13:38.576Z,35.10
2023-04-26T01:16:08.804Z,34.87
2023-04-26T01:18:36.512Z,34.39
2023-04-26T01:21:05.350Z,34.47
2023-04-26T01:23:33.029Z,33.83
2023-04-26T01:26:00.687Z,33.87
2023-04-26T01:28:28.149Z,33.50
2023-04-26T01:30:57.139Z,32.90
2023-04-26T01:33:25.040Z,32.91
2023-04-26T01:35:52.676Z,34.16
2023-04-26T01:38:20.441Z,34.34
2023-04-26T01:40:48.014Z,34.36
2023-04-26T01:43:16.821Z,34.32
2023-04-26T01:45:49.633Z,33.57
2023-04-26T01:48:30.920Z,33.55
2023-04-26T01:51:01.602Z,33.61
2023-04-26T01:53:29.061Z,33.34
2023-04-26T01:55:56.664Z,33.37
2023-04-26T01:58:24.284Z,32.77
2023-04-26T02:00:55.032Z,33.22
2023-04-26T02:03:24.819Z,32.82
2023-04-26T02:05:52.383Z,32.78
2023-04-26T02:08:19.876Z,32.63
2023-04-26T02:10:47.543Z,31.97
2023-04-26T02:13:15.752Z,32.24
2023-04-26T02:15:47.089Z,32.10
2023-04-26T02:18:15.553Z,31.85
2023-04-26T02:20:44.610Z,31.48
2023-04-26T02:23:12.861Z,31.38
2023-04-26T02:25:47.160Z,31.24
2023-04-26T02:28:16.508Z,31.23
2023-04-26T02:30:44.677Z,31.04
2023-04-26T02:33:12.185Z,31.01
2023-04-26T02:35:40.022Z,30.73
2023-04-26T02:38:07.653Z,30.11
2023-04-26T02:40:36.197Z,29.91
2023-04-26T02:43:03.916Z,29.53
2023-04-26T02:45:31.407Z,29.51
2023-04-26T02:47:59.566Z,28.78
2023-04-26T02:50:27.709Z,28.77
2023-04-26T02:52:55.174Z,28.36
2023-04-26T02:55:22.654Z,27.84
2023-04-26T02:57:50.766Z,27.39
2023-04-26T03:00:18.285Z,27.43
2023-04-26T03:02:45.883Z,27.64
2023-04-26T03:05:14.030Z,27.95
2023-04-26T03:07:41.921Z,28.05
2023-04-26T03:10:10.111Z,28.08
2023-04-26T03:12:39.119Z,28.19
2023-04-26T03:15:07.076Z,28.03
2023-04-26T03:17:34.838Z,27.96
2023-04-26T03:20:05.983Z,28.07
2023-04-26T03:22:34.404Z,28.45
2023-04-26T03:25:02.041Z,28.24
2023-04-26T03:27:31.421Z,28.20
2023-04-26T03:30:00.869Z,28.26
2023-04-26T03:32:31.360Z,28.12
2023-04-26T03:34:58.979Z,28.53
2023-04-26T03:37:26.496Z,28.49
2023-04-26T03:40:00.468Z,28.40
2023-04-26T03:42:27.918Z,28.08
2023-04-26T03:44:55.432Z,28.47
2023-04-26T03:47:23.481Z,28.08
2023-04-26T03:49:52.061Z,27.97
2023-04-26T03:52:20.230Z,27.58
2023-04-26T03:54:48.352Z,27.72
2023-04-26T03:57:15.848Z,27.82
2023-04-26T03:59:43.629Z,27.91
2023-04-26T04:02:11.150Z,27.28
2023-04-26T04:04:38.899Z,26.73
2023-04-26T04:07:07.063Z,26.88
2023-04-26T04:09:35.267Z,26.75
2023-04-26T04:12:03.347Z,26.48
2023-04-26T04:14:30.975Z,26.30
2023-04-26T04:16:59.802Z,25.75
2023-04-26T04:19:28.387Z,25.01
2023-04-26T04:21:56.606Z,25.19
2023-04-26T04:24:25.993Z,25.03
2023-04-26T04:26:53.728Z,24.87
2023-04-26T04:29:21.262Z,24.73
2023-04-26T04:31:48.994Z,23.83
2023-04-26T04:34:16.744Z,24.12
2023-04-26T04:36:45.415Z,23.48
2023-04-26T04:39:16.396Z,23.12
2023-04-26T04:41:48.535Z,22.45
2023-04-26T04:44:21.862Z,22.43
2023-04-26T04:46:49.408Z,22.12
2023-04-26T04:49:18.900Z,22.02
2023-04-26T04:51:46.635Z,21.88
2023-04-26T04:54:16.557Z,21.51
2023-04-26T04:56:46.167Z,21.41
2023-04-26T04:59:15.524Z,21.87
2023-04-26T05:01:43.136Z,21.96
2023-04-26T05:04:14.673Z,21.84
2023-04-26T05:06:42.605Z,21.13
2023-04-26T05:09:11.692Z,21.30
2023-04-26T05:11:39.800Z,21.64
2023-04-26T05:14:10.024Z,21.32
2023-04-26T05:16:38.700Z,21.10
2023-04-26T05:19:09.238Z,21.17
2023-04-26T05:21:37.621Z,20.67
2023-04-26T05:24:06.687Z,20.46
2023-04-26T05:26:36.122Z,20.06
2023-04-26T05:29:19.057Z,19.74
2023-04-26T05:32:07.115Z,19.14
2023-04-26T05:34:41.587Z,19.02
2023-04-26T05:37:12.807Z,18.34
2023-04-26T05:39:40.235Z,18.13
2023-04-26T05:42:08.077Z,17.43
2023-04-26T05:44:36.382Z,16.75
2023-04-26T05:47:03.860Z,16.36
2023-04-26T05:49:31.777Z,15.22
2023-04-26T05:52:03.867Z,15.16
2023-04-26T05:54:31.577Z,14.56
2023-04-26T05:56:59.369Z,14.67
2023-04-26T05:59:33.159Z,14.64
2023-04-26T06:02:01.758Z,15.29
2023-04-26T06:04:30.298Z,15.02
2023-04-26T06:07:07.858Z,15.04
2023-04-26T06:09:35.529Z,15.00
2023-04-26T06:12:04.589Z,15.07
2023-04-26T06:14:35.440Z,14.77
2023-04-26T06:17:07.560Z,14.59
2023-04-26T06:19:35.138Z,14.57
2023-04-26T06:22:02.677Z,14.40
2023-04-26T06:24:30.856Z,14.57
2023-04-26T06:26:59.140Z,14.50
2023-04-26T06:29:26.862Z,14.79
2023-04-26T06:31:54.857Z,14.29
2023-04-26T06:34:24.780Z,14.56
2023-04-26T06:36:52.432Z,14.73
2023-04-26T06:39:21.432Z,14.80
2023-04-26T06:41:50.996Z,14.79
2023-04-26T06:44:27.579Z,14.58
2023-04-26T06:47:02.259Z,14.69
2023-04-26T06:49:29.813Z,14.43
2023-04-26T06:51:58.053Z,14.56
2023-04-26T06:54:29.301Z,14.97
2023-04-26T06:56:57.947Z,15.03
2023-04-26T06:59:26.327Z,14.85
2023-04-26T07:01:54.866Z,15.16
2023-04-26T07:04:22.830Z,14.79
2023-04-26T07:06:50.784Z,14.93
2023-04-26T07:09:18.204Z,15.25
2023-04-26T07:11:48.576Z,16.34
2023-04-26T07:14:16.178Z,16.43
2023-04-26T07:16:44.592Z,16.27
2023-04-26T07:19:12.210Z,16.64
2023-04-26T07:21:39.696Z,16.88
2023-04-26T07:24:07.253Z,17.03
2023-04-26T07:26:37.322Z,16.63
2023-04-26T07:29:04.863Z,16.56
2023-04-26T07:31:32.648Z,16.75
2023-04-26T07:34:00.261Z,16.86
2023-04-26T07:36:28.242Z,17.02
2023-04-26T07:38:55.756Z,16.79
2023-04-26T07:41:23.593Z,16.89
2023-04-26T07:43:51.214Z,16.81
2023-04-26T07:46:19.093Z,16.77
2023-04-26T07:48:46.748Z,16.80
2023-04-26T07:51:14.407Z,16.62
2023-04-26T07:53:42.093Z,17.07
2023-04-26T07:56:10.203Z,16.91
2023-04-26T07:58:39.522Z,16.98
2023-04-26T08:01:07.366Z,17.09
2023-04-26T08:03:35.236Z,16.90
2023-04-26T08:06:03.422Z,16.68
2023-04-26T08:08:32.561Z,15.83
2023-04-26T08:11:00.212Z,15.91
2023-04-26T08:13:29.338Z,15.56
2023-04-26T08:15:57.154Z,15.71
2023-04-26T08:18:24.671Z,15.49
2023-04-26T08:20:52.161Z,15.81
2023-04-26T08:23:19.963Z,15.77
2023-04-26T08:25:48.035Z,15.59
2023-04-26T08:28:16.218Z,15.57
2023-04-26T08:30:44.075Z,15.50
2023-04-26T08:33:11.692Z,15.35
2023-04-26T08:35:39.142Z,15.37
2023-04-26T08:38:06.583Z,15.45
2023-04-26T08:40:34.406Z,15.26
2023-04-26T08:43:01.808Z,15.23
2023-04-26T08:45:29.339Z,15.31
2023-04-26T08:48:04.904Z,15.52
2023-04-26T08:50:35.035Z,15.64
2023-04-26T08:53:02.655Z,15.51
2023-04-26T08:55:30.645Z,15.82
2023-04-26T08:57:58.865Z,15.84
2023-04-26T09:00:27.631Z,16.09
2023-04-26T09:02:55.226Z,16.64
2023-04-26T09:05:27.462Z,16.73
2023-04-26T09:08:01.151Z,16.91
2023-04-26T09:10:28.810Z,17.04
2023-04-26T09:12:56.779Z,17.01
2023-04-26T09:15:26.692Z,17.03
2023-04-26T09:17:54.808Z,16.92
2023-04-26T09:20:24.548Z,17.07
2023-04-26T09:23:12.998Z,17.05
2023-04-26T09:25:40.681Z,17.31
2023-04-26T09:28:22.691Z,17.41
2023-04-26T09:30:50.846Z,17.49
2023-04-26T09:33:19.757Z,17.56
2023-04-26T09:35:47.257Z,17.59
2023-04-26T09:38:16.939Z,17.98
2023-04-26T09:40:49.798Z,17.35
2023-04-26T09:43:19.560Z,16.89
2023-04-26T09:45:54.290Z,17.46
2023-04-26T09:48:26.094Z,17.07
2023-04-26T09:50:56.312Z,17.09
2023-04-26T09:53:37.590Z,17.40
2023-04-26T09:56:10.711Z,17.50
2023-04-26T09:58:59.739Z,17.73
2023-04-26T10:01:31.692Z,17.13
2023-04-26T10:04:02.202Z,17.37
2023-04-26T10:06:30.045Z,17.57
2023-04-26T10:08:58.093Z,17.32
2023-04-26T10:11:27.426Z,17.47
2023-04-26T10:13:55.617Z,17.77
2023-04-26T10:16:24.105Z,17.44
2023-04-26T10:18:52.030Z,17.60
2023-04-26T10:21:35.719Z,17.98
2023-04-26T10:24:03.676Z,18.43
2023-04-26T10:26:57.777Z,18.51
2023-04-26T10:29:28.226Z,18.54
2023-04-26T10:32:04.734Z,18.85
2023-04-26T10:34:34.300Z,19.16
2023-04-26T10:37:11.160Z,19.05
2023-04-26T10:39:40.201Z,19.83
2023-04-26T10:42:30.450Z,20.22
2023-04-26T10:45:21.187Z,20.90
2023-04-26T10:47:48.828Z,21.38
2023-04-26T10:50:16.482Z,22.64
2023-04-26T10:53:04.056Z,20.55
2023-04-26T10:55:42.019Z,23.67
2023-04-26T10:58:30.506Z,25.57
2023-04-26T11:01:07.511Z,28.66
2023-04-26T11:03:35.524Z,28.75
2023-04-26T11:06:16.028Z,29.36
2023-04-26T11:08:43.613Z,27.83
2023-04-26T11:11:12.885Z,28.37
2023-04-26T11:13:44.455Z,29.35
2023-04-26T11:16:16.763Z,29.27
2023-04-26T11:18:46.369Z,29.79
2023-04-26T11:21:18.363Z,29.68
2023-04-26T11:23:55.803Z,29.80
2023-04-26T11:26:24.998Z,29.17
2023-04-26T11:28:52.714Z,30.17
2023-04-26T11:31:20.379Z,29.34
2023-04-26T11:33:50.593Z,29.88
2023-04-26T11:36:19.998Z,30.80
2023-04-26T11:38:47.844Z,29.96
2023-04-26T11:41:15.282Z,31.99
2023-04-26T11:43:42.874Z,32.54
2023-04-26T11:46:10.569Z,33.14
2023-04-26T11:48:39.684Z,32.59
2023-04-26T11:51:09.160Z,33.15
2023-04-26T11:53:41.558Z,32.19
2023-04-26T11:56:20.627Z,32.46
2023-04-26T11:58:50.877Z,32.78
2023-04-26T12:01:26.653Z,32.56
2023-04-26T12:03:59.322Z,32.67
2023-04-26T12:06:33.110Z,33.48
2023-04-26T12:09:05.948Z,33.24
2023-04-26T12:11:33.545Z,33.35
2023-04-26T12:14:01.981Z,33.59
2023-04-26T12:16:29.605Z,34.05
2023-04-26T12:18:57.757Z,34.04
2023-04-26T12:21:28.159Z,33.81
2023-04-26T12:23:57.315Z,34.11
2023-04-26T12:26:46.324Z,34.24
2023-04-26T12:29:13.841Z,34.65
2023-04-26T12:31:42.089Z,34.74
2023-04-26T12:34:09.803Z,35.51
2023-04-26T12:36:37.469Z,35.45
2023-04-26T12:39:05.626Z,35.33
2023-04-26T12:41:33.162Z,34.21
2023-04-26T12:44:01.272Z,35.02
2023-04-26T12:46:28.779Z,35.35
2023-04-26T12:48:56.311Z,34.62
2023-04-26T12:51:23.787Z,34.77
2023-04-26T12:53:51.377Z,34.83
2023-04-26T12:56:19.049Z,35.29
2023-04-26T12:58:46.638Z,35.73
2023-04-26T13:01:14.690Z,36.01
2023-04-26T13:03:43.351Z,36.15
2023-04-26T13:06:13.654Z,35.46
2023-04-26T13:08:42.014Z,35.27
2023-04-26T13:11:10.773Z,35.43
2023-04-26T13:13:43.459Z,35.32
2023-04-26T13:16:13.300Z,35.09
2023-04-26T13:18:41.942Z,35.64
2023-04-26T13:21:09.460Z,35.29
2023-04-26T13:23:37.042Z,35.48
2023-04-26T13:26:04.554Z,36.04
2023-04-26T13:28:32.237Z,36.13
2023-04-26T13:30:59.888Z,36.29
2023-04-26T13:33:27.625Z,36.51
2023-04-26T13:35:55.056Z,36.46
2023-04-26T13:38:22.619Z,36.48
2023-04-26T13:40:50.112Z,36.51
2023-04-26T13:43:17.871Z,36.32
2023-04-26T13:45:45.413Z,36.74
2023-04-26T13:48:15.119Z,36.35
2023-04-26T13:50:44.318Z,36.41
2023-04-26T13:53:13.337Z,36.63
2023-04-26T13:55:40.985Z,36.71
2023-04-26T13:58:08.574Z,36.84
2023-04-26T14:00:36.757Z,36.35
2023-04-26T14:03:04.608Z,36.70
2023-04-26T14:05:32.286Z,36.21
2023-04-26T14:08:00.689Z,36.56
2023-04-26T14:10:32.006Z,36.06
2023-04-26T14:12:59.810Z,36.39
2023-04-26T14:15:27.302Z,36.10
2023-04-26T14:17:54.870Z,35.48
2023-04-26T14:20:23.922Z,35.70
2023-04-26T14:22:51.677Z,35.75
2023-04-26T14:25:19.550Z,35.45
2023-04-26T14:27:47.718Z,34.89
2023-04-26T14:30:15.856Z,35.18
2023-04-26T14:32:43.709Z,35.39
2023-04-26T14:35:11.300Z,34.99
2023-04-26T14:37:39.158Z,35.19
2023-04-26T14:40:08.321Z,34.90
2023-04-26T14:42:36.531Z,34.35
2023-04-26T14:45:04.678Z,34.22
2023-04-26T14:47:33.049Z,34.12
2023-04-26T14:50:00.539Z,33.70
2023-04-26T14:52:29.429Z,33.68
2023-04-26T14:54:57.594Z,33.95
2023-04-26T14:57:25.271Z,34.02
2023-04-26T14:59:52.768Z,33.73
2023-04-26T15:02:20.333Z,33.46
2023-04-26T15:04:48.005Z,33.71
2023-04-26T15:07:28.769Z,33.19
2023-04-26T15:09:59.259Z,33.25
2023-04-26T15:12:26.727Z,32.74
2023-04-26T15:14:54.580Z,32.70
2023-04-26T15:17:22.283Z,32.77
2023-04-26T15:19:49.712Z,32.70
2023-04-26T15:22:17.481Z,32.66
2023-04-26T15:24:45.064Z,32.71
2023-04-26T15:27:13.029Z,32.49
2023-04-26T15:29:40.645Z,32.39
2023-04-26T15:32:08.133Z,32.48
2023-04-26T15:34:45.444Z,32.74
2023-04-26T15:37:13.193Z,32.78
2023-04-26T15:39:40.703Z,32.64
2023-04-26T15:42:08.308Z,32.46
2023-04-26T15:44:35.958Z,32.85
2023-04-26T15:47:04.113Z,33.01
2023-04-26T15:49:31.869Z,33.16
2023-04-26T15:51:59.431Z,32.87
2023-04-26T15:54:27.097Z,33.02
2023-04-26T15:56:55.552Z,33.26
2023-04-26T15:59:23.336Z,33.45
2023-04-26T16:01:51.255Z,33.61
2023-04-26T16:04:19.120Z,33.63
2023-04-26T16:06:46.806Z,33.98
2023-04-26T16:09:25.204Z,33.62
2023-04-26T16:11:53.641Z,33.88
2023-04-26T16:14:21.464Z,33.34
2023-04-26T16:16:49.089Z,33.60
2023-04-26T16:19:17.672Z,33.47
2023-04-26T16:21:45.395Z,33.44
2023-04-26T16:24:13.170Z,33.66
2023-04-26T16:26:41.301Z,33.72
2023-04-26T16:29:08.930Z,33.69
2023-04-26T16:31:37.107Z,34.00
2023-04-26T16:34:04.962Z,34.09
2023-04-26T16:36:33.241Z,34.31
2023-04-26T16:39:01.129Z,34.17
2023-04-26T16:41:28.664Z,34.15
2023-04-26T16:43:56.372Z,34.18
2023-04-26T16:46:24.073Z,34.26
2023-04-26T16:48:52.049Z,34.35
2023-04-26T16:51:19.436Z,34.64
2023-04-26T16:53:47.052Z,34.62
2023-04-26T16:56:14.527Z,34.88
2023-04-26T16:58:42.531Z,35.04
2023-04-26T17:01:10.085Z,35.16
2023-04-26T17:03:37.722Z,35.10
2023-04-26T17:06:06.920Z,35.18
2023-04-26T17:08:34.512Z,35.08
2023-04-26T17:11:02.154Z,35.18
2023-04-26T17:13:31.172Z,35.12
2023-04-26T17:15:58.838Z,35.64
2023-04-26T17:18:26.611Z,35.50
2023-04-26T17:20:56.533Z,35.46
2023-04-26T17:23:24.871Z,35.26
2023-04-26T17:25:54.998Z,35.60
2023-04-26T17:28:23.022Z,35.42
2023-04-26T17:30:50.713Z,35.62
2023-04-26T17:33:18.468Z,35.64
2023-04-26T17:35:47.518Z,35.63
2023-04-26T17:38:15.127Z,35.75
2023-04-26T17:40:42.594Z,35.46
2023-04-26T17:43:10.131Z,35.39
2023-04-26T17:45:37.632Z,35.77
2023-04-26T17:48:05.690Z,35.18
2023-04-26T17:50:33.343Z,35.40
2023-04-26T17:53:00.901Z,35.50
2023-04-26T17:55:28.373Z,35.50
2023-04-26T17:57:56.005Z,35.18
2023-04-26T18:00:24.335Z,35.55
2023-04-26T18:02:51.943Z,35.42
2023-04-26T18:05:19.686Z,35.48
2023-04-26T18:07:47.623Z,34.87
2023-04-26T18:10:15.068Z,34.93
2023-04-26T18:12:42.610Z,34.65
2023-04-26T18:15:10.317Z,34.54
2023-04-26T18:17:37.991Z,34.63
2023-04-26T18:20:06.873Z,34.49
2023-04-26T18:22:34.376Z,33.88
2023-04-26T18:25:01.936Z,33.90
2023-04-26T18:27:30.710Z,33.93
2023-04-26T18:29:58.598Z,33.50
2023-04-26T18:32:26.312Z,33.37
2023-04-26T18:34:53.808Z,33.08
2023-04-26T18:37:21.392Z,33.12
2023-04-26T18:39:49.114Z,33.46
2023-04-26T18:42:22.124Z,32.90
2023-04-26T18:44:49.865Z,32.23
2023-04-26T18:47:17.415Z,32.63
2023-04-26T18:49:44.859Z,32.61
2023-04-26T18:52:12.306Z,32.60
2023-04-26T18:54:39.882Z,32.43
2023-04-26T18:57:07.365Z,32.42
2023-04-26T18:59:34.924Z,32.09
2023-04-26T19:02:04.579Z,32.27
2023-04-26T19:04:32.610Z,31.79
2023-04-26T19:07:01.224Z,32.00
2023-04-26T19:09:36.991Z,31.92
2023-04-26T19:12:10.713Z,32.39
2023-04-26T19:14:38.187Z,31.81
2023-04-26T19:17:05.660Z,31.87
2023-04-26T19:19:33.287Z,31.90
2023-04-26T19:22:01.572Z,31.98
2023-04-26T19:24:29.323Z,32.03
2023-04-26T19:26:56.802Z,31.71
2023-04-26T19:29:24.444Z,32.10
2023-04-26T19:31:52.127Z,31.79
2023-04-26T19:34:19.816Z,31.99
2023-04-26T19:36:47.284Z,31.89
2023-04-26T19:39:16.835Z,31.98
2023-04-26T19:41:44.431Z,31.87
2023-04-26T19:44:13.182Z,31.66
2023-04-26T19:46:41.273Z,31.72
2023-04-26T19:49:09.018Z,31.56
2023-04-26T19:51:36.562Z,31.83
2023-04-26T19:54:04.270Z,31.83
2023-04-26T19:56:31.811Z,31.75
2023-04-26T19:58:59.520Z,31.80
2023-04-26T20:01:27.928Z,32.22
2023-04-26T20:03:55.613Z,31.83
2023-04-26T20:06:23.243Z,31.42
2023-04-26T20:08:50.812Z,31.27
2023-04-26T20:11:19.555Z,30.73
2023-04-26T20:13:47.003Z,30.75
2023-04-26T20:16:14.626Z,30.52
2023-04-26T20:18:42.522Z,30.76
2023-04-26T20:21:10.094Z,30.81
2023-04-26T20:23:38.128Z,30.82
2023-04-26T20:26:05.643Z,30.68
2023-04-26T20:28:33.427Z,30.81
2023-04-26T20:31:00.875Z,30.65
2023-04-26T20:33:29.410Z,30.62
2023-04-26T20:35:56.983Z,30.56
2023-04-26T20:38:24.569Z,30.40
2023-04-26T20:40:51.956Z,30.82
2023-04-26T20:43:19.418Z,30.72
2023-04-26T20:45:47.043Z,30.21
2023-04-26T20:48:14.633Z,30.42
2023-04-26T20:50:42.106Z,29.88
2023-04-26T20:53:09.645Z,29.90
2023-04-26T20:55:37.240Z,29.50
2023-04-26T20:58:04.818Z,29.64
2023-04-26T21:00:32.388Z,29.47
2023-04-26T21:03:00.083Z,29.41
2023-04-26T21:05:27.855Z,29.38
2023-04-26T21:07:55.406Z,29.74
2023-04-26T21:10:22.909Z,29.21
2023-04-26T21:12:50.496Z,28.97
2023-04-26T21:15:18.186Z,29.28
2023-04-26T21:17:45.752Z,29.15
2023-04-26T21:20:13.401Z,29.18
2023-04-26T21:22:41.065Z,29.13
2023-04-26T21:25:08.997Z,28.75
2023-04-26T21:27:38.179Z,28.78
2023-04-26T21:30:06.376Z,28.47
2023-04-26T21:32:33.941Z,28.70
2023-04-26T21:35:01.525Z,28.99
2023-04-26T21:37:29.241Z,28.55
2023-04-26T21:39:56.768Z,28.71
2023-04-26T21:42:24.209Z,28.87
2023-04-26T21:44:51.893Z,28.86
2023-04-26T21:47:20.169Z,28.95
2023-04-26T21:49:47.716Z,28.80
2023-04-26T21:52:15.272Z,28.96
2023-04-26T21:54:42.789Z,28.96
2023-04-26T21:57:10.470Z,29.26
2023-04-26T21:59:42.416Z,29.08
2023-04-26T22:02:10.164Z,29.49
2023-04-26T22:04:37.637Z,29.46
2023-04-26T22:07:05.180Z,29.45
2023-04-26T22:09:32.868Z,29.27
2023-04-26T22:12:00.365Z,29.17
2023-04-26T22:14:27.848Z,29.38
2023-04-26T22:16:55.524Z,29.15
2023-04-26T22:19:23.143Z,29.20
2023-04-26T22:21:50.800Z,29.32
2023-04-26T22:24:18.250Z,29.27
2023-04-26T22:26:48.712Z,29.62
2023-04-26T22:29:16.630Z,29.25
2023-04-26T22:31:44.135Z,29.30
2023-04-26T22:34:12.085Z,29.05
2023-04-26T22:36:40.113Z,29.20
2023-04-26T22:39:07.657Z,29.35
2023-04-26T22:41:35.345Z,29.60
2023-04-26T22:44:02.832Z,29.11
2023-04-26T22:46:30.517Z,29.33
2023-04-26T22:48:58.096Z,29.65
2023-04-26T22:51:25.835Z,29.51
2023-04-26T22:53:53.259Z,29.73
2023-04-26T22:56:20.726Z,29.60
2023-04-26T22:58:48.761Z,29.66
2023-04-26T23:01:16.258Z,29.83
2023-04-26T23:03:43.855Z,29.40
2023-04-26T23:06:11.369Z,29.74
2023-04-26T23:08:41.243Z,29.77
2023-04-26T23:11:11.887Z,29.59
2023-04-26T23:13:39.449Z,29.96
2023-04-26T23:16:07.449Z,30.29
2023-04-26T23:18:35.361Z,30.06
2023-04-26T23:21:02.956Z,30.19
2023-04-26T23:23:30.789Z,30.44
2023-04-26T23:25:58.477Z,30.67
2023-04-26T23:28:25.930Z,31.05
2023-04-26T23:30:53.454Z,30.64
2023-04-26T23:33:21.065Z,30.98
2023-04-26T23:35:48.595Z,30.91
2023-04-26T23:38:16.249Z,30.77
2023-04-26T23:40:43.888Z,30.69
2023-04-26T23:43:13.274Z,30.98
2023-04-26T23:45:47.369Z,31.16
2023-04-26T23:48:15.838Z,31.06
2023-04-26T23:50:43.712Z,31.19
2023-04-26T23:53:11.234Z,31.02
2023-04-26T23:55:40.006Z,31.19
2023-04-26T23:58:09.434Z,31.24
